Time;durP1;ratioP1;P1;durP2;ratioP2;P2;SDS_P1;SDS_P2;PMS_P1;PMS_P2;Temp;Humidity;BMP_temperature;BMP_pressure;BME280_temperature;BME280_humidity;BME280_pressure;Samples;Min_cycle;Max_cycle;Signal;HPM_P1;HPM_P2
2022/08/19 00:01:47;;;;;;;8.43;3.58;;;;;;;;;;4245608;33;20105;-70
2022/08/19 00:04:14;;;;;;;10.10;3.95;;;;;;;;;;4232633;33;20156;-69
2022/08/19 00:36:41;;;;;;;3.33;2.22;;;;;;;;;;4249124;33;20200;-66
2022/08/19 00:39:07;;;;;;;3.20;2.40;;;;;;;;;;4258690;33;20108;-68
2022/08/19 00:41:34;;;;;;;8.27;3.17;;;;;;;;;;4240819;33;20137;-67
2022/08/19 00:44:13;;;;;;;5.32;2.80;;;;;;;;;;4255689;33;20105;-68
2022/08/19 00:46:41;;;;;;;10.50;3.47;;;;;;;;;;4233446;33;20104;-66
2022/08/19 00:49:35;;;;;;;4.68;2.50;;;;;;;;;;4239515;33;20219;-67
2022/08/19 00:52:06;;;;;;;6.50;2.90;;;;;;;;;;4245059;33;20128;-75
2022/08/19 00:54:33;;;;;;;12.15;3.67;;;;;;;;;;4246393;33;20120;-77
2022/08/19 00:56:59;;;;;;;10.38;3.33;;;;;;;;;;4257268;33;20126;-76
2022/08/19 00:59:26;;;;;;;7.47;3.58;;;;;;;;;;4246418;33;20093;-78
2022/08/19 01:01:52;;;;;;;7.30;2.92;;;;;;;;;;4246308;33;20449;-69
2022/08/19 01:04:18;;;;;;;8.20;3.10;;;;;;;;;;4247522;33;20100;-68
2022/08/19 01:06:44;;;;;;;10.73;3.22;;;;;;;;;;4257608;33;20087;-69
2022/08/19 01:09:10;;;;;;;7.30;2.85;;;;;;;;;;4261926;33;20107;-69
2022/08/19 01:11:39;;;;;;;3.20;2.35;;;;;;;;;;4260339;33;20195;-68
2022/08/19 01:14:06;;;;;;;9.70;3.22;;;;;;;;;;4256534;33;20136;-67
2022/08/19 01:16:33;;;;;;;6.60;3.10;;;;;;;;;;4247261;33;20123;-67
2022/08/19 01:18:59;;;;;;;4.53;2.67;;;;;;;;;;4257836;33;20638;-67
2022/08/19 01:21:31;;;;;;;7.05;3.08;;;;;;;;;;4246002;33;20120;-68
2022/08/19 01:23:57;;;;;;;7.43;2.53;;;;;;;;;;4257959;33;20105;-67
2022/08/19 01:26:25;;;;;;;7.15;2.55;;;;;;;;;;4257455;33;20184;-67
2022/08/19 01:28:54;;;;;;;5.97;3.15;;;;;;;;;;4246116;33;20120;-67
2022/08/19 01:31:23;;;;;;;9.90;2.95;;;;;;;;;;4245701;33;20139;-67
2022/08/19 01:33:50;;;;;;;7.28;3.25;;;;;;;;;;4257610;33;20536;-68
2022/08/19 01:36:45;;;;;;;6.30;3.35;;;;;;;;;;4253261;33;20115;-68
2022/08/19 01:39:16;;;;;;;5.57;2.70;;;;;;;;;;4259971;33;20119;-67
2022/08/19 01:41:42;;;;;;;3.67;1.48;;;;;;;;;;4251856;33;20081;-68
2022/08/19 01:44:09;;;;;;;3.40;2.25;;;;;;;;;;4222329;33;20449;-68
2022/08/19 01:46:36;;;;;;;9.55;3.45;;;;;;;;;;4234027;33;20136;-68
2022/08/19 01:49:04;;;;;;;3.83;1.92;;;;;;;;;;4245760;33;20231;-69
2022/08/19 01:51:30;;;;;;;2.50;1.73;;;;;;;;;;4244951;33;20230;-68
2022/08/19 01:53:56;;;;;;;3.08;1.62;;;;;;;;;;4245724;33;20563;-67
2022/08/19 01:56:23;;;;;;;5.12;2.17;;;;;;;;;;4245755;33;20136;-67
2022/08/19 01:58:59;;;;;;;1.83;1.70;;;;;;;;;;4245918;33;20113;-67
2022/08/19 02:01:25;;;;;;;5.93;2.65;;;;;;;;;;4245485;33;20101;-68
2022/08/19 02:03:53;;;;;;;3.87;1.67;;;;;;;;;;4247005;33;20127;-67
2022/08/19 02:06:19;;;;;;;3.50;2.05;;;;;;;;;;4241412;33;20108;-68
2022/08/19 02:08:45;;;;;;;1.85;1.73;;;;;;;;;;4261312;33;20115;-67
2022/08/19 02:11:20;;;;;;;3.00;2.08;;;;;;;;;;4259574;33;20129;-67
2022/08/19 02:13:46;;;;;;;2.05;1.42;;;;;;;;;;4271518;33;20104;-69
2022/08/19 02:16:12;;;;;;;4.50;1.80;;;;;;;;;;4259682;33;20461;-67
2022/08/19 02:18:38;;;;;;;4.10;2.42;;;;;;;;;;4246901;33;20150;-68
2022/08/19 02:21:04;;;;;;;4.68;2.37;;;;;;;;;;4245674;33;20112;-67
2022/08/19 02:23:31;;;;;;;6.95;2.62;;;;;;;;;;4247031;33;20123;-68
2022/08/19 02:25:57;;;;;;;5.50;2.92;;;;;;;;;;4257182;33;20113;-68
2022/08/19 02:28:23;;;;;;;6.45;2.42;;;;;;;;;;4246812;33;20118;-67
2022/08/19 02:30:49;;;;;;;9.15;3.15;;;;;;;;;;4257141;33;20106;-68
2022/08/19 02:33:16;;;;;;;9.43;3.20;;;;;;;;;;4246704;33;20125;-67
2022/08/19 02:35:43;;;;;;;5.22;3.08;;;;;;;;;;4259174;33;20098;-67
2022/08/19 02:38:27;;;;;;;6.00;3.12;;;;;;;;;;4260870;33;20556;-68
2022/08/19 02:40:56;;;;;;;6.90;2.25;;;;;;;;;;4258269;33;20547;-67
2022/08/19 02:43:23;;;;;;;6.70;3.17;;;;;;;;;;4245296;33;20120;-68
2022/08/19 02:45:49;;;;;;;6.68;2.80;;;;;;;;;;4233357;33;20442;-67
2022/08/19 02:48:20;;;;;;;5.37;2.92;;;;;;;;;;4246638;33;20215;-67
2022/08/19 02:50:46;;;;;;;6.60;2.83;;;;;;;;;;4245267;33;20175;-67
2022/08/19 02:53:13;;;;;;;4.20;2.17;;;;;;;;;;4245225;33;20120;-67
2022/08/19 02:55:48;;;;;;;2.47;2.15;;;;;;;;;;4245088;33;20140;-67
2022/08/19 02:58:15;;;;;;;4.45;2.33;;;;;;;;;;4245324;33;20132;-68
2022/08/19 03:00:46;;;;;;;2.95;2.12;;;;;;;;;;4244846;33;20491;-68
2022/08/19 03:03:12;;;;;;;5.37;2.35;;;;;;;;;;4244670;33;20508;-67
2022/08/19 03:05:38;;;;;;;2.50;2.15;;;;;;;;;;4248547;33;20100;-68
2022/08/19 03:08:05;;;;;;;5.12;2.22;;;;;;;;;;4259377;33;20096;-67
2022/08/19 03:10:32;;;;;;;9.77;2.47;;;;;;;;;;4247415;33;20113;-67
2022/08/19 03:12:58;;;;;;;6.00;2.70;;;;;;;;;;4260393;33;20089;-67
2022/08/19 03:15:25;;;;;;;5.22;1.95;;;;;;;;;;4258955;33;20116;-67
2022/08/19 03:17:50;;;;;;;4.05;2.40;;;;;;;;;;4259225;33;20187;-68
2022/08/19 03:20:17;;;;;;;5.10;2.53;;;;;;;;;;4260391;33;20539;-72
2022/08/19 03:22:42;;;;;;;2.45;2.00;;;;;;;;;;4271052;33;20123;-68
2022/08/19 03:25:09;;;;;;;3.03;2.08;;;;;;;;;;4258814;33;20172;-74
2022/08/19 03:27:35;;;;;;;4.20;2.05;;;;;;;;;;4258874;33;20208;-77
2022/08/19 03:30:02;;;;;;;5.12;2.62;;;;;;;;;;4260321;33;20124;-76
2022/08/19 03:32:28;;;;;;;4.12;2.35;;;;;;;;;;4253528;33;20434;-72
2022/08/19 03:34:54;;;;;;;8.57;3.08;;;;;;;;;;4245938;33;20128;-78
2022/08/19 03:37:22;;;;;;;5.85;2.30;;;;;;;;;;4245521;33;20498;-76
2022/08/19 03:39:48;;;;;;;7.28;2.80;;;;;;;;;;4231867;33;21015;-73
2022/08/19 03:42:14;;;;;;;7.00;2.20;;;;;;;;;;4238924;33;20442;-74
2022/08/19 03:44:42;;;;;;;3.33;2.12;;;;;;;;;;4245973;33;20121;-73
2022/08/19 03:47:08;;;;;;;2.85;2.00;;;;;;;;;;4245941;33;20128;-73
2022/08/19 03:49:35;;;;;;;4.30;2.33;;;;;;;;;;4245804;33;20677;-75
2022/08/19 03:52:01;;;;;;;6.25;2.67;;;;;;;;;;4244327;33;20144;-74
2022/08/19 03:54:27;;;;;;;6.00;2.58;;;;;;;;;;4246104;33;20099;-76
2022/08/19 03:56:54;;;;;;;5.75;2.10;;;;;;;;;;4244323;33;20092;-74
2022/08/19 03:59:30;;;;;;;3.22;2.20;;;;;;;;;;4244321;33;20197;-74
2022/08/19 04:01:58;;;;;;;9.63;2.45;;;;;;;;;;4244438;33;20113;-73
2022/08/19 04:04:24;;;;;;;2.85;2.33;;;;;;;;;;4244227;33;20090;-73
2022/08/19 04:06:51;;;;;;;2.80;2.10;;;;;;;;;;4244251;33;20208;-71
2022/08/19 04:09:17;;;;;;;4.20;1.90;;;;;;;;;;4244276;33;20112;-74
2022/08/19 04:11:47;;;;;;;2.50;1.65;;;;;;;;;;4243538;33;20112;-69
2022/08/19 04:14:18;;;;;;;1.42;1.33;;;;;;;;;;4244470;33;20116;-72
2022/08/19 04:16:46;;;;;;;6.55;2.55;;;;;;;;;;4246963;33;20184;-79
2022/08/19 04:19:13;;;;;;;1.40;1.33;;;;;;;;;;4246377;33;20456;-74
2022/08/19 04:21:39;;;;;;;10.52;3.00;;;;;;;;;;4246422;33;20093;-70
2022/08/19 04:24:06;;;;;;;7.93;2.50;;;;;;;;;;4246515;33;20132;-77
2022/08/19 04:26:34;;;;;;;3.78;1.90;;;;;;;;;;4244628;33;20198;-73
2022/08/19 04:29:01;;;;;;;2.10;1.75;;;;;;;;;;4234907;33;20469;-71
2022/08/19 04:31:30;;;;;;;4.00;1.55;;;;;;;;;;4245267;33;20473;-71
2022/08/19 04:33:57;;;;;;;6.55;2.50;;;;;;;;;;4246385;33;20108;-70
2022/08/19 04:36:26;;;;;;;7.75;2.37;;;;;;;;;;4234574;33;20095;-71
2022/08/19 04:38:57;;;;;;;2.72;1.80;;;;;;;;;;4247774;33;20458;-69
2022/08/19 04:44:09;;;;;;;3.45;1.65;;;;;;;;;;4247768;33;20207;-73
2022/08/19 04:46:35;;;;;;;2.50;2.03;;;;;;;;;;4246263;33;20108;-72
2022/08/19 04:49:04;;;;;;;4.68;1.85;;;;;;;;;;4234458;33;20556;-71
2022/08/19 04:51:31;;;;;;;7.03;2.58;;;;;;;;;;4246190;33;20084;-70
2022/08/19 04:53:59;;;;;;;1.92;1.45;;;;;;;;;;4246539;33;20109;-70
2022/08/19 04:56:26;;;;;;;4.97;2.28;;;;;;;;;;4247393;33;20207;-72
2022/08/19 04:58:53;;;;;;;7.03;2.60;;;;;;;;;;4247596;33;20615;-71
2022/08/19 05:01:25;;;;;;;4.18;1.37;;;;;;;;;;4247797;33;20084;-72
2022/08/19 05:03:51;;;;;;;2.67;2.00;;;;;;;;;;4246030;33;20129;-69
2022/08/19 05:06:19;;;;;;;5.50;1.90;;;;;;;;;;4247454;33;20084;-69
2022/08/19 05:08:46;;;;;;;6.43;2.42;;;;;;;;;;4246232;33;20108;-70
2022/08/19 05:11:19;;;;;;;4.68;2.25;;;;;;;;;;4246100;33;20121;-70
2022/08/19 05:13:46;;;;;;;5.45;2.65;;;;;;;;;;4246014;33;20507;-70
2022/08/19 05:16:13;;;;;;;5.87;2.20;;;;;;;;;;4247408;33;20088;-67
2022/08/19 05:24:10;;;;;;;3.42;2.45;;;;;;;;;;4246286;33;20117;-70
2022/08/19 05:26:41;;;;;;;4.10;2.03;;;;;;;;;;4246151;33;20101;-71
2022/08/19 05:29:08;;;;;;;9.57;2.28;;;;;;;;;;4246102;33;20604;-71
2022/08/19 05:31:35;;;;;;;10.43;3.40;;;;;;;;;;4245758;33;20746;-75
2022/08/19 05:34:03;;;;;;;10.05;3.00;;;;;;;;;;4233877;33;20583;-68
2022/08/19 05:36:34;;;;;;;11.70;2.40;;;;;;;;;;4247472;33;20117;-72
2022/08/19 05:39:00;;;;;;;8.07;2.55;;;;;;;;;;4246200;33;20107;-72
2022/08/19 05:41:29;;;;;;;4.68;1.90;;;;;;;;;;4245662;33;20785;-75
2022/08/19 05:43:56;;;;;;;9.05;2.40;;;;;;;;;;4233845;33;20528;-72
2022/08/19 05:46:23;;;;;;;3.78;2.45;;;;;;;;;;4247128;33;20108;-72
2022/08/19 05:48:49;;;;;;;6.93;2.40;;;;;;;;;;4246967;33;20103;-75
2022/08/19 05:51:15;;;;;;;7.03;2.53;;;;;;;;;;4245641;33;20191;-73
2022/08/19 05:53:42;;;;;;;5.43;2.62;;;;;;;;;;4245422;33;20116;-72
2022/08/19 05:56:14;;;;;;;5.45;2.08;;;;;;;;;;4233916;33;20124;-74
2022/08/19 05:58:41;;;;;;;4.72;2.30;;;;;;;;;;4231050;33;20113;-71
2022/08/19 06:01:17;;;;;;;4.57;2.15;;;;;;;;;;4257067;33;20088;-71
2022/08/19 06:03:45;;;;;;;8.85;2.10;;;;;;;;;;4245458;33;20104;-74
2022/08/19 06:06:14;;;;;;;13.73;3.00;;;;;;;;;;4245536;33;20214;-71
2022/08/19 06:08:42;;;;;;;11.15;3.03;;;;;;;;;;4245569;33;20191;-71
2022/08/19 06:11:23;;;;;;;3.80;2.00;;;;;;;;;;4245501;33;20530;-67
2022/08/19 06:13:52;;;;;;;7.60;3.00;;;;;;;;;;4245445;33;20603;-69
2022/08/19 06:16:22;;;;;;;15.90;2.65;;;;;;;;;;4234033;33;20100;-70
2022/08/19 06:18:52;;;;;;;9.27;3.45;;;;;;;;;;4233938;33;20135;-69
2022/08/19 06:21:22;;;;;;;6.43;2.60;;;;;;;;;;4245759;33;20136;-72
2022/08/19 06:23:50;;;;;;;6.45;2.83;;;;;;;;;;4257034;33;20109;-70
2022/08/19 06:26:16;;;;;;;7.32;2.70;;;;;;;;;;4246717;33;20203;-71
2022/08/19 06:28:46;;;;;;;8.35;2.55;;;;;;;;;;4233787;33;20457;-71
2022/08/19 06:31:25;;;;;;;5.68;2.65;;;;;;;;;;4245664;33;20124;-70
2022/08/19 06:33:52;;;;;;;5.85;2.62;;;;;;;;;;4257128;33;20203;-70
2022/08/19 06:36:31;;;;;;;9.27;2.47;;;;;;;;;;4246456;33;20539;-72
2022/08/19 06:39:12;;;;;;;9.00;2.12;;;;;;;;;;4256799;33;20211;-71
2022/08/19 06:41:41;;;;;;;14.82;3.25;;;;;;;;;;4245364;33;20151;-70
2022/08/19 06:44:07;;;;;;;12.30;2.55;;;;;;;;;;4245232;33;20139;-73
2022/08/19 06:46:34;;;;;;;9.40;3.17;;;;;;;;;;4245466;33;20128;-75
2022/08/19 06:49:00;;;;;;;9.73;2.60;;;;;;;;;;4245430;33;20453;-76
2022/08/19 06:51:26;;;;;;;5.28;2.30;;;;;;;;;;4231586;33;20099;-68
2022/08/19 06:53:54;;;;;;;4.97;2.17;;;;;;;;;;4242980;33;20116;-71
2022/08/19 06:56:30;;;;;;;8.50;2.45;;;;;;;;;;4219278;33;20113;-74
2022/08/19 06:58:57;;;;;;;4.32;2.03;;;;;;;;;;4243830;33;20583;-77
2022/08/19 07:01:24;;;;;;;3.67;1.98;;;;;;;;;;4239878;33;20089;-70
2022/08/19 07:03:50;;;;;;;14.35;3.60;;;;;;;;;;4220998;33;20565;-71
2022/08/19 07:06:17;;;;;;;6.03;2.60;;;;;;;;;;4219677;33;20196;-70
2022/08/19 07:08:46;;;;;;;10.65;2.40;;;;;;;;;;4220622;33;20125;-71
2022/08/19 07:11:14;;;;;;;4.12;2.65;;;;;;;;;;4246545;33;20100;-70
2022/08/19 07:13:43;;;;;;;8.05;2.22;;;;;;;;;;4222823;33;20113;-73
2022/08/19 07:16:15;;;;;;;9.73;2.40;;;;;;;;;;4233730;33;20132;-72
2022/08/19 07:18:41;;;;;;;11.50;2.35;;;;;;;;;;4233424;33;20505;-72
2022/08/19 07:21:13;;;;;;;9.80;2.17;;;;;;;;;;4246883;33;20119;-70
2022/08/19 07:23:41;;;;;;;4.93;2.47;;;;;;;;;;4233134;33;20553;-73
2022/08/19 07:26:09;;;;;;;9.57;2.45;;;;;;;;;;4232981;33;20528;-69
2022/08/19 07:28:38;;;;;;;6.32;2.58;;;;;;;;;;4246180;33;20191;-72
2022/08/19 07:31:08;;;;;;;4.18;2.20;;;;;;;;;;4244938;33;20139;-69
2022/08/19 07:33:36;;;;;;;11.05;2.22;;;;;;;;;;4245123;33;20449;-71
2022/08/19 07:36:06;;;;;;;14.90;2.45;;;;;;;;;;4233251;33;20113;-73
2022/08/19 07:38:33;;;;;;;11.35;2.42;;;;;;;;;;4233021;33;20093;-72
2022/08/19 07:40:59;;;;;;;8.95;2.12;;;;;;;;;;4245041;33;20524;-73
2022/08/19 07:43:26;;;;;;;7.82;1.75;;;;;;;;;;4256661;33;20585;-74
2022/08/19 07:45:56;;;;;;;64.45;4.72;;;;;;;;;;4233233;33;20190;-74
2022/08/19 07:48:26;;;;;;;12.43;2.25;;;;;;;;;;4244772;33;20120;-74
2022/08/19 07:50:57;;;;;;;11.95;2.00;;;;;;;;;;4246768;33;20125;-74
2022/08/19 07:53:24;;;;;;;6.55;2.28;;;;;;;;;;4235088;33;20093;-73
2022/08/19 07:55:51;;;;;;;12.77;2.58;;;;;;;;;;4258374;33;20121;-74
2022/08/19 07:58:19;;;;;;;5.75;2.28;;;;;;;;;;4246731;33;20112;-74
2022/08/19 08:00:47;;;;;;;5.37;1.90;;;;;;;;;;4244849;33;20096;-70
2022/08/19 08:03:15;;;;;;;6.07;2.05;;;;;;;;;;4246788;33;20129;-73
2022/08/19 08:11:11;;;;;;;7.28;2.47;;;;;;;;;;4248208;33;20093;-75
2022/08/19 08:13:38;;;;;;;4.87;2.05;;;;;;;;;;4246708;33;20142;-75
2022/08/19 08:16:04;;;;;;;6.93;2.20;;;;;;;;;;4246614;33;20116;-72
2022/08/19 08:18:31;;;;;;;15.70;2.85;;;;;;;;;;4248279;33;20105;-73
2022/08/19 08:20:57;;;;;;;8.43;2.00;;;;;;;;;;4247845;33;20107;-77
2022/08/19 08:23:26;;;;;;;12.05;2.25;;;;;;;;;;4234879;33;20571;-69
2022/08/19 08:25:56;;;;;;;4.70;2.37;;;;;;;;;;4247894;33;20452;-74
2022/08/19 08:28:22;;;;;;;9.07;2.72;;;;;;;;;;4246484;33;20569;-75
2022/08/19 08:30:49;;;;;;;8.25;2.28;;;;;;;;;;4246490;33;20468;-75
2022/08/19 08:33:21;;;;;;;4.15;1.90;;;;;;;;;;4247925;33;20100;-75
2022/08/19 08:35:47;;;;;;;8.60;2.58;;;;;;;;;;4247815;33;20119;-75
2022/08/19 08:38:14;;;;;;;7.35;2.75;;;;;;;;;;4234953;33;20204;-75
2022/08/19 08:41:04;;;;;;;14.93;2.22;;;;;;;;;;4246843;33;20268;-75
2022/08/19 08:43:34;;;;;;;6.95;2.05;;;;;;;;;;4247919;33;20130;-70
2022/08/19 08:46:04;;;;;;;1.08;1.08;;;;;;;;;;4234340;33;20112;-71
2022/08/19 08:48:46;;;;;;;17.60;2.42;;;;;;;;;;4246571;33;20173;-74
2022/08/19 08:51:24;;;;;;;11.90;3.50;;;;;;;;;;4258003;33;20127;-75
2022/08/19 08:53:51;;;;;;;4.95;2.05;;;;;;;;;;4246168;33;20132;-73
2022/08/19 08:56:18;;;;;;;1.15;1.15;;;;;;;;;;4258089;33;20136;-69
2022/08/19 08:59:06;;;;;;;4.95;2.03;;;;;;;;;;4257706;33;20119;-72
2022/08/19 09:01:33;;;;;;;6.03;1.85;;;;;;;;;;4247092;33;20552;-69
2022/08/19 09:03:59;;;;;;;4.18;2.28;;;;;;;;;;4233405;33;20111;-67
2022/08/19 09:06:34;;;;;;;10.75;2.60;;;;;;;;;;4232150;33;20452;-68
2022/08/19 09:09:17;;;;;;;7.62;2.50;;;;;;;;;;4233535;33;20133;-71
2022/08/19 09:11:49;;;;;;;7.30;2.40;;;;;;;;;;4233434;33;20457;-67
2022/08/19 09:14:50;;;;;;;4.72;2.33;;;;;;;;;;4246693;33;20081;-68
2022/08/19 09:17:17;;;;;;;11.88;2.65;;;;;;;;;;4246011;33;20101;-68
2022/08/19 09:20:09;;;;;;;6.25;2.22;;;;;;;;;;4247181;33;20136;-72
2022/08/19 09:22:36;;;;;;;4.28;1.85;;;;;;;;;;4245924;33;20185;-69
2022/08/19 09:25:04;;;;;;;3.45;1.50;;;;;;;;;;4257442;33;20103;-68
2022/08/19 09:27:31;;;;;;;11.88;2.67;;;;;;;;;;4247399;33;20127;-68
2022/08/19 09:29:57;;;;;;;7.53;2.85;;;;;;;;;;4245597;33;20452;-68
2022/08/19 09:32:24;;;;;;;10.98;2.83;;;;;;;;;;4245688;33;20098;-70
2022/08/19 09:34:54;;;;;;;6.60;2.28;;;;;;;;;;4222946;33;20165;-71
2022/08/19 09:37:21;;;;;;;4.82;2.40;;;;;;;;;;4247575;33;20108;-67
2022/08/19 09:39:47;;;;;;;5.37;2.50;;;;;;;;;;4245817;33;20108;-67
2022/08/19 09:42:14;;;;;;;7.87;2.03;;;;;;;;;;4234055;33;20497;-69
2022/08/19 09:44:40;;;;;;;9.55;2.22;;;;;;;;;;4233908;33;20180;-71
2022/08/19 09:47:07;;;;;;;5.62;2.22;;;;;;;;;;4246095;33;20211;-73
2022/08/19 09:49:33;;;;;;;7.80;2.50;;;;;;;;;;4245702;33;20136;-73
2022/08/19 09:51:59;;;;;;;4.18;2.22;;;;;;;;;;4247223;33;20203;-72
2022/08/19 09:54:26;;;;;;;2.95;2.20;;;;;;;;;;4247082;33;20093;-72
2022/08/19 09:56:55;;;;;;;8.30;2.20;;;;;;;;;;4246096;33;20117;-72
2022/08/19 09:59:21;;;;;;;7.32;2.20;;;;;;;;;;4234109;33;20144;-72
2022/08/19 10:01:47;;;;;;;10.30;2.67;;;;;;;;;;4245707;33;20117;-72
2022/08/19 10:04:13;;;;;;;3.37;1.20;;;;;;;;;;4245576;33;20109;-72
2022/08/19 10:06:41;;;;;;;1.10;1.10;;;;;;;;;;4247372;33;20185;-72
2022/08/19 10:09:09;;;;;;;1.65;1.20;;;;;;;;;;4234511;33;20539;-71
2022/08/19 10:11:37;;;;;;;0.90;0.90;;;;;;;;;;4245023;33;20136;-71
2022/08/19 10:14:05;;;;;;;1.10;1.10;;;;;;;;;;4245787;33;20105;-70
2022/08/19 10:16:31;;;;;;;0.95;0.95;;;;;;;;;;4234101;33;20171;-65
2022/08/19 10:18:59;;;;;;;1.10;1.00;;;;;;;;;;4245591;33;20531;-76
2022/08/19 10:21:30;;;;;;;1.42;1.37;;;;;;;;;;4246844;33;20215;-71
2022/08/19 10:23:59;;;;;;;1.12;0.80;;;;;;;;;;4245527;33;20109;-69
2022/08/19 10:26:27;;;;;;;3.50;1.42;;;;;;;;;;4245363;33;20106;-69
2022/08/19 10:28:54;;;;;;;1.50;1.40;;;;;;;;;;4245502;33;20105;-67
2022/08/19 10:31:29;;;;;;;1.80;1.50;;;;;;;;;;4246713;33;20184;-66
2022/08/19 10:33:59;;;;;;;1.50;1.30;;;;;;;;;;4246688;33;20433;-69
2022/08/19 10:36:36;;;;;;;1.27;1.17;;;;;;;;;;4246885;33;20196;-70
2022/08/19 10:39:05;;;;;;;0.90;0.90;;;;;;;;;;4245336;33;20104;-69
2022/08/19 10:41:33;;;;;;;2.58;1.83;;;;;;;;;;4243112;33;20203;-71
2022/08/19 10:44:04;;;;;;;1.42;1.20;;;;;;;;;;4231248;33;20527;-67
2022/08/19 10:46:32;;;;;;;1.45;1.35;;;;;;;;;;4231178;33;20528;-68
2022/08/19 10:48:59;;;;;;;1.12;1.12;;;;;;;;;;4232601;33;20184;-67
2022/08/19 10:54:10;;;;;;;1.17;1.10;;;;;;;;;;4230645;33;20113;-69
2022/08/19 10:56:51;;;;;;;1.98;1.55;;;;;;;;;;4242858;33;20535;-69
2022/08/19 10:59:28;;;;;;;1.52;1.42;;;;;;;;;;4231455;33;20127;-68
2022/08/19 11:01:59;;;;;;;1.20;1.10;;;;;;;;;;4233283;33;20132;-66
2022/08/19 11:04:25;;;;;;;1.15;1.08;;;;;;;;;;4246393;33;20536;-66
2022/08/19 11:06:51;;;;;;;1.35;1.25;;;;;;;;;;4246519;33;20457;-67
2022/08/19 11:09:26;;;;;;;1.15;1.15;;;;;;;;;;4246284;33;20211;-68
2022/08/19 11:11:53;;;;;;;1.25;1.15;;;;;;;;;;4246557;33;20301;-67
2022/08/19 11:14:20;;;;;;;5.82;1.30;;;;;;;;;;4246344;33;20195;-67
2022/08/19 11:16:47;;;;;;;3.05;2.00;;;;;;;;;;4246452;33;20097;-67
2022/08/19 11:19:16;;;;;;;2.03;1.45;;;;;;;;;;4245045;33;20132;-68
2022/08/19 11:21:44;;;;;;;2.03;1.83;;;;;;;;;;4246395;33;20216;-67
2022/08/19 11:24:13;;;;;;;1.17;1.12;;;;;;;;;;4244515;33;20121;-66
2022/08/19 11:26:41;;;;;;;2.67;1.92;;;;;;;;;;4243876;33;20115;-68
2022/08/19 11:29:11;;;;;;;3.22;1.87;;;;;;;;;;4246248;33;20099;-66
2022/08/19 11:31:38;;;;;;;5.50;2.62;;;;;;;;;;4244657;33;20116;-69
2022/08/19 11:34:06;;;;;;;3.62;1.98;;;;;;;;;;4244942;33;20215;-67
2022/08/19 11:36:33;;;;;;;7.05;1.73;;;;;;;;;;4246070;33;20116;-66
2022/08/19 11:38:59;;;;;;;2.47;1.75;;;;;;;;;;4246137;33;20119;-67
2022/08/19 11:41:26;;;;;;;1.12;1.02;;;;;;;;;;4245050;33;20105;-67
2022/08/19 11:43:54;;;;;;;7.72;1.92;;;;;;;;;;4246262;33;20095;-65
2022/08/19 11:46:22;;;;;;;2.25;2.05;;;;;;;;;;4244913;33;20113;-69
2022/08/19 11:48:50;;;;;;;2.10;1.30;;;;;;;;;;4244734;33;20110;-66
2022/08/19 11:51:18;;;;;;;1.15;1.12;;;;;;;;;;4244595;33;20200;-70
2022/08/19 11:53:45;;;;;;;4.00;1.58;;;;;;;;;;4232805;33;20093;-70
2022/08/19 11:56:11;;;;;;;2.08;1.60;;;;;;;;;;4244475;33;20184;-70
2022/08/19 11:58:38;;;;;;;7.93;2.15;;;;;;;;;;4246011;33;20203;-71
2022/08/19 12:01:16;;;;;;;1.40;1.30;;;;;;;;;;4244330;33;20112;-71
2022/08/19 12:03:45;;;;;;;2.05;1.73;;;;;;;;;;4247416;33;20195;-69
2022/08/19 12:06:15;;;;;;;5.75;2.20;;;;;;;;;;4244248;33;20101;-69
2022/08/19 12:08:42;;;;;;;2.65;2.20;;;;;;;;;;4245901;33;20104;-69
2022/08/19 12:11:10;;;;;;;0.82;0.82;;;;;;;;;;4244582;33;20117;-73
2022/08/19 12:13:36;;;;;;;1.20;1.10;;;;;;;;;;4244496;33;20081;-68
2022/08/19 12:16:15;;;;;;;4.15;1.40;;;;;;;;;;4244094;33;20099;-72
2022/08/19 12:18:43;;;;;;;1.83;1.50;;;;;;;;;;4232592;33;20272;-72
2022/08/19 12:21:10;;;;;;;4.22;1.30;;;;;;;;;;4244248;33;20117;-71
2022/08/19 12:23:37;;;;;;;3.45;1.12;;;;;;;;;;4233029;33;20476;-72
2022/08/19 12:26:04;;;;;;;1.05;1.05;;;;;;;;;;4232223;33;20180;-72
2022/08/19 12:28:30;;;;;;;2.75;1.90;;;;;;;;;;4244289;33;20133;-71
2022/08/19 12:30:57;;;;;;;1.00;1.00;;;;;;;;;;4245422;33;20437;-69
2022/08/19 12:33:25;;;;;;;1.40;1.30;;;;;;;;;;4245649;33;20088;-73
2022/08/19 12:35:52;;;;;;;1.20;1.20;;;;;;;;;;4246633;33;20116;-71
2022/08/19 12:38:18;;;;;;;1.48;1.37;;;;;;;;;;4246682;33;20105;-69
2022/08/19 12:40:49;;;;;;;1.35;1.25;;;;;;;;;;4246271;33;20120;-72
2022/08/19 12:43:20;;;;;;;2.78;1.45;;;;;;;;;;4246483;33;20213;-69
2022/08/19 12:45:46;;;;;;;1.00;1.00;;;;;;;;;;4235996;33;20552;-72
2022/08/19 12:48:12;;;;;;;11.73;2.45;;;;;;;;;;4246558;33;20200;-72
2022/08/19 12:50:45;;;;;;;1.40;1.37;;;;;;;;;;4247729;33;20112;-69
2022/08/19 12:53:11;;;;;;;1.60;1.50;;;;;;;;;;4247760;33;20097;-69
2022/08/19 12:55:37;;;;;;;3.50;1.65;;;;;;;;;;4247759;33;20113;-71
2022/08/19 12:58:04;;;;;;;2.70;1.73;;;;;;;;;;4223417;33;20144;-71
2022/08/19 13:00:32;;;;;;;4.57;2.45;;;;;;;;;;4235254;33;20120;-70
2022/08/19 13:02:58;;;;;;;4.10;2.05;;;;;;;;;;4249119;33;20215;-69
2022/08/19 13:05:27;;;;;;;1.98;1.77;;;;;;;;;;4236637;33;20219;-71
2022/08/19 13:07:56;;;;;;;3.10;1.92;;;;;;;;;;4234705;33;20178;-71
2022/08/19 13:10:24;;;;;;;3.00;2.15;;;;;;;;;;4247119;33;20140;-72
2022/08/19 13:12:51;;;;;;;4.68;2.37;;;;;;;;;;4248513;33;20118;-72
2022/08/19 13:15:21;;;;;;;3.05;1.87;;;;;;;;;;4247528;33;20113;-70
2022/08/19 13:17:49;;;;;;;4.00;2.15;;;;;;;;;;4248183;33;20109;-71
2022/08/19 13:20:16;;;;;;;1.20;1.20;;;;;;;;;;4246002;33;20113;-72
2022/08/19 13:22:44;;;;;;;1.52;1.42;;;;;;;;;;4234464;33;20097;-71
2022/08/19 13:25:11;;;;;;;1.50;1.40;;;;;;;;;;4246077;33;20466;-72
2022/08/19 13:27:37;;;;;;;2.33;1.70;;;;;;;;;;4246289;33;20108;-72
2022/08/19 13:35:34;;;;;;;3.50;1.20;;;;;;;;;;4247259;33;20457;-70
2022/08/19 13:38:04;;;;;;;3.33;2.20;;;;;;;;;;4247515;33;20098;-73
2022/08/19 13:40:33;;;;;;;1.85;1.12;;;;;;;;;;4245782;33;20149;-71
2022/08/19 13:43:00;;;;;;;3.40;1.30;;;;;;;;;;4246240;33;20112;-72
2022/08/19 13:45:28;;;;;;;1.95;1.77;;;;;;;;;;4234130;33;20151;-69
2022/08/19 13:47:56;;;;;;;6.95;2.00;;;;;;;;;;4245966;33;20077;-69
2022/08/19 13:50:27;;;;;;;7.30;2.58;;;;;;;;;;4246019;33;20490;-69
2022/08/19 13:52:54;;;;;;;4.35;1.95;;;;;;;;;;4245801;33;20473;-70
2022/08/19 13:55:21;;;;;;;1.35;1.25;;;;;;;;;;4233977;33;20104;-73
2022/08/19 13:57:59;;;;;;;5.22;2.10;;;;;;;;;;4246111;33;20124;-71
2022/08/19 14:00:27;;;;;;;4.93;2.35;;;;;;;;;;4245781;33;20210;-73
2022/08/19 14:02:55;;;;;;;1.42;1.33;;;;;;;;;;4245909;33;20176;-73
2022/08/19 14:05:22;;;;;;;1.20;1.10;;;;;;;;;;4245822;33;20446;-71
2022/08/19 14:07:48;;;;;;;1.35;1.25;;;;;;;;;;4247123;33;20108;-70
2022/08/19 14:10:15;;;;;;;1.20;1.10;;;;;;;;;;4234144;33;20551;-72
2022/08/19 14:12:41;;;;;;;4.95;1.98;;;;;;;;;;4245998;33;20112;-72
2022/08/19 14:15:08;;;;;;;0.90;0.90;;;;;;;;;;4245050;33;20116;-69
2022/08/19 14:17:37;;;;;;;10.80;1.85;;;;;;;;;;4246885;33;20097;-71
2022/08/19 14:20:08;;;;;;;7.80;1.87;;;;;;;;;;4244854;33;20100;-68
2022/08/19 14:22:35;;;;;;;1.95;1.45;;;;;;;;;;4245447;33;20132;-69
2022/08/19 14:25:02;;;;;;;3.17;2.00;;;;;;;;;;4245699;33;20116;-69
2022/08/19 14:27:29;;;;;;;3.37;1.90;;;;;;;;;;4219188;33;20429;-70
2022/08/19 14:29:55;;;;;;;6.85;3.53;;;;;;;;;;4251284;33;20148;-68
2022/08/19 14:32:21;;;;;;;6.25;2.53;;;;;;;;;;4253515;33;20132;-69
2022/08/19 14:34:47;;;;;;;2.80;1.80;;;;;;;;;;4235959;33;20200;-69
2022/08/19 14:37:14;;;;;;;4.05;1.90;;;;;;;;;;4239155;33;20199;-69
2022/08/19 14:39:41;;;;;;;6.68;2.80;;;;;;;;;;4236508;33;20113;-71
2022/08/19 14:42:08;;;;;;;3.92;2.40;;;;;;;;;;4238964;33;20128;-70
2022/08/19 14:44:35;;;;;;;9.18;2.78;;;;;;;;;;4237556;33;20145;-68
2022/08/19 14:47:01;;;;;;;4.12;2.25;;;;;;;;;;4236682;33;20124;-71
2022/08/19 14:49:27;;;;;;;2.72;2.20;;;;;;;;;;4237066;33;20117;-69
2022/08/19 14:51:53;;;;;;;9.18;2.30;;;;;;;;;;4238027;33;20101;-69
2022/08/19 14:54:19;;;;;;;7.80;2.00;;;;;;;;;;4237688;33;20140;-69
2022/08/19 14:56:45;;;;;;;5.40;1.80;;;;;;;;;;4254404;33;20109;-69
2022/08/19 14:59:11;;;;;;;6.72;2.03;;;;;;;;;;4248053;33;20121;-68
2022/08/19 15:01:37;;;;;;;3.90;2.20;;;;;;;;;;4240022;33;20092;-75
2022/08/19 15:04:04;;;;;;;5.85;1.90;;;;;;;;;;4238685;33;20097;-80
2022/08/19 15:06:31;;;;;;;4.82;2.53;;;;;;;;;;4237642;33;20088;-76
2022/08/19 15:08:57;;;;;;;4.12;2.53;;;;;;;;;;4239743;33;20589;-70
2022/08/19 15:11:27;;;;;;;4.15;2.75;;;;;;;;;;4234948;33;20096;-67
2022/08/19 15:13:54;;;;;;;6.45;2.70;;;;;;;;;;4232413;33;20232;-66
2022/08/19 15:16:21;;;;;;;8.15;4.97;;;;;;;;;;4239048;33;20093;-69
2022/08/19 15:18:52;;;;;;;7.47;2.65;;;;;;;;;;4245046;33;20517;-69
2022/08/19 15:21:19;;;;;;;4.93;2.17;;;;;;;;;;4244821;33;20195;-66
2022/08/19 15:23:46;;;;;;;3.92;2.45;;;;;;;;;;4246652;33;20191;-66
2022/08/19 15:26:12;;;;;;;4.97;2.17;;;;;;;;;;4246152;33;20112;-67
2022/08/19 15:28:38;;;;;;;9.60;2.97;;;;;;;;;;4245323;33;20199;-67
2022/08/19 15:31:04;;;;;;;6.95;2.78;;;;;;;;;;4244073;33;20143;-67
2022/08/19 15:33:37;;;;;;;5.12;3.45;;;;;;;;;;4243562;33;20199;-67
2022/08/19 15:36:06;;;;;;;6.00;3.37;;;;;;;;;;4246339;33;20120;-67
2022/08/19 15:38:33;;;;;;;6.32;3.00;;;;;;;;;;4246255;33;20283;-67
2022/08/19 15:41:22;;;;;;;5.20;3.05;;;;;;;;;;4246143;33;20123;-67